Terminal Aerodrome Forecast
Issued by NWS Detroit/Pontiac, MI

Home | Current Version | Previous Version | Text Only | Print | Product List | Glossary On
Versions: 1 2 3 4 5 6 7 8 9 10 11 12 13 14 15 16 17 18 19 20 21 22 23 24 25 26 27 28 29
000
FTUS43 KDTX 240202 AAB
TAFDTW
TAF AMD
KDTW 240202Z 2402/2506 21020G32KT P6SM -RA BKN020 OVC060
     FM240400 23016G28KT 6SM -SHRA BR BKN018 OVC040
     FM241000 20008KT P6SM BKN012 OVC060
     FM241700 20015G25KT P6SM SCT025 OVC040
     FM250200 23011G19KT 5SM -RA BR OVC010=

USA.gov is the U.S. government's official web portal to all federal, state and local government web resources and services.